Time;durP1;ratioP1;P1;durP2;ratioP2;P2;SDS_P1;SDS_P2;PMS_P1;PMS_P2;Temp;Humidity;BMP_temperature;BMP_pressure;BME280_temperature;BME280_humidity;BME280_pressure;Samples;Min_cycle;Max_cycle;Signal;HPM_P1;HPM_P2
2022/07/30 00:00:38;;;;;;;2.73;2.00;;;14.30;82.40;;;;;;4182264;28;20172;-78
2022/07/30 00:02:40;;;;;;;2.10;1.90;;;14.30;82.40;;;;;;4181862;28;20554;-77
2022/07/30 00:04:41;;;;;;;3.40;1.87;;;14.40;81.80;;;;;;4181766;28;20678;-78
2022/07/30 00:06:42;;;;;;;3.57;1.90;;;14.40;82.00;;;;;;4179887;28;20177;-78
2022/07/30 00:08:43;;;;;;;5.80;2.27;;;14.70;79.10;;;;;;4164767;28;20170;-78
2022/07/30 00:10:43;;;;;;;4.07;2.13;;;15.00;77.40;;;;;;4164771;28;20173;-78
2022/07/30 00:12:44;;;;;;;2.80;2.30;;;15.30;74.90;;;;;;4163485;28;20232;-78
2022/07/30 00:14:44;;;;;;;2.67;1.80;;;15.50;73.30;;;;;;4163901;28;21045;-78
2022/07/30 00:16:45;;;;;;;3.03;1.90;;;15.60;72.20;;;;;;4164449;28;20181;-77
2022/07/30 00:18:46;;;;;;;3.63;2.03;;;15.80;71.20;;;;;;4164455;28;20192;-78
2022/07/30 00:20:47;;;;;;;3.27;2.50;;;15.90;71.00;;;;;;4164727;28;20212;-77
2022/07/30 00:22:48;;;;;;;4.17;2.30;;;15.50;73.50;;;;;;4164424;28;20277;-78
2022/07/30 00:24:48;;;;;;;3.97;2.27;;;15.20;75.00;;;;;;4163842;28;20205;-78
2022/07/30 00:26:49;;;;;;;2.17;1.97;;;15.00;77.30;;;;;;4164527;28;20173;-79
2022/07/30 00:28:49;;;;;;;2.40;1.90;;;14.90;78.30;;;;;;4164461;28;20543;-77
2022/07/30 00:30:50;;;;;;;2.10;2.00;;;14.80;78.80;;;;;;4164447;28;20545;-77
2022/07/30 00:32:51;;;;;;;6.13;2.27;;;14.80;78.70;;;;;;4164460;28;20207;-78
2022/07/30 00:34:51;;;;;;;1.90;1.80;;;14.70;79.60;;;;;;4163625;28;20264;-78
2022/07/30 00:36:52;;;;;;;5.57;2.10;;;14.70;80.30;;;;;;4164319;28;20822;-78
2022/07/30 00:38:52;;;;;;;2.20;2.00;;;14.70;79.20;;;;;;4163450;28;20751;-77
2022/07/30 00:40:53;;;;;;;3.67;2.27;;;14.70;79.60;;;;;;4164249;28;20173;-77
2022/07/30 00:42:53;;;;;;;2.23;1.90;;;14.60;80.00;;;;;;4164322;28;20267;-79
2022/07/30 00:44:54;;;;;;;3.77;2.33;;;14.70;80.50;;;;;;4163809;28;20201;-78
2022/07/30 00:46:55;;;;;;;2.80;2.17;;;14.70;80.40;;;;;;4164179;28;20699;-78
2022/07/30 00:48:55;;;;;;;5.47;5.07;;;14.60;80.60;;;;;;4164543;28;20659;-78
2022/07/30 00:50:56;;;;;;;2.87;2.33;;;14.50;81.60;;;;;;4164510;28;20174;-78
2022/07/30 00:52:56;;;;;;;6.77;6.27;;;14.50;81.00;;;;;;4164337;28;20185;-78
2022/07/30 00:54:58;;;;;;;4.63;2.40;;;14.50;82.20;;;;;;4163664;28;20303;-77
2022/07/30 00:56:58;;;;;;;4.50;2.33;;;14.50;82.20;;;;;;4164347;28;20185;-78
2022/07/30 00:58:59;;;;;;;2.63;2.43;;;14.50;81.90;;;;;;4164762;28;20208;-79
2022/07/30 01:00:59;;;;;;;2.63;2.43;;;14.60;81.70;;;;;;4166076;28;20239;-79
2022/07/30 01:03:00;;;;;;;2.83;2.57;;;14.50;82.50;;;;;;4166537;28;20698;-79
2022/07/30 01:05:00;;;;;;;7.10;2.30;;;14.60;82.70;;;;;;4165510;28;20193;-78
2022/07/30 01:07:01;;;;;;;4.80;2.47;;;14.70;82.00;;;;;;4164540;28;20227;-78
2022/07/30 01:09:02;;;;;;;6.13;2.60;;;14.70;84.50;;;;;;4163907;28;20177;-77
2022/07/30 01:11:02;;;;;;;2.83;2.50;;;14.80;82.50;;;;;;4164127;28;20246;-77
2022/07/30 01:13:04;;;;;;;4.77;2.90;;;14.80;83.10;;;;;;4164885;28;20648;-77
2022/07/30 01:15:07;;;;;;;5.20;4.07;;;14.80;82.80;;;;;;4164751;28;20193;-77
2022/07/30 01:17:08;;;;;;;5.63;4.57;;;15.00;82.30;;;;;;4164866;28;20184;-77
2022/07/30 01:21:50;;;;;;;4.97;3.07;;;15.20;81.30;;;;;;4180727;28;20222;-77
2022/07/30 01:23:56;;;;;;;2.90;2.63;;;15.30;81.80;;;;;;4183114;28;20239;-79
2022/07/30 01:26:03;;;;;;;5.90;2.93;;;15.20;81.60;;;;;;4192280;28;20161;-77
2022/07/30 01:28:11;;;;;;;4.13;2.70;;;15.30;81.50;;;;;;4184218;28;20655;-77
2022/07/30 01:30:17;;;;;;;6.90;3.13;;;15.30;80.80;;;;;;4182063;28;20179;-77
2022/07/30 01:32:22;;;;;;;3.60;2.90;;;15.30;81.50;;;;;;4181797;28;20179;-78
2022/07/30 01:34:23;;;;;;;4.70;3.30;;;15.30;81.20;;;;;;4181331;28;20571;-77
2022/07/30 01:36:25;;;;;;;4.33;3.40;;;15.30;81.50;;;;;;4182209;28;20173;-77
2022/07/30 01:38:27;;;;;;;9.00;3.10;;;15.20;82.00;;;;;;4182191;28;20210;-78
2022/07/30 01:40:29;;;;;;;3.47;3.03;;;15.10;82.90;;;;;;4180065;28;20702;-77
2022/07/30 01:42:31;;;;;;;3.80;3.00;;;15.10;83.10;;;;;;4181165;28;20184;-78
2022/07/30 01:44:33;;;;;;;5.43;3.27;;;15.00;84.10;;;;;;4181729;28;20281;-78
2022/07/30 01:46:34;;;;;;;3.80;2.83;;;14.90;85.00;;;;;;4182142;28;20172;-78
2022/07/30 01:48:39;;;;;;;3.80;3.40;;;14.80;85.80;;;;;;4181492;28;20179;-77
2022/07/30 01:50:44;;;;;;;5.20;3.30;;;14.80;85.90;;;;;;4180026;28;20221;-77
2022/07/30 01:52:47;;;;;;;4.87;3.40;;;14.70;87.60;;;;;;4180027;28;20176;-78
2022/07/30 01:54:51;;;;;;;5.03;3.20;;;14.60;88.60;;;;;;4180443;28;20207;-78
2022/07/30 01:56:54;;;;;;;5.73;3.47;;;14.60;89.10;;;;;;4180512;28;20332;-77
2022/07/30 01:58:57;;;;;;;6.23;3.53;;;14.50;89.30;;;;;;4180198;28;20175;-78
2022/07/30 02:00:58;;;;;;;4.77;3.40;;;14.50;89.70;;;;;;4180169;28;20233;-77
2022/07/30 02:02:58;;;;;;;5.20;3.60;;;14.40;89.50;;;;;;4182561;28;20208;-77
2022/07/30 02:05:03;;;;;;;4.57;3.17;;;14.40;89.60;;;;;;4180292;28;20207;-78
2022/07/30 02:07:23;;;;;;;5.47;3.50;;;14.40;89.90;;;;;;4176817;28;20616;-78
2022/07/30 02:09:30;;;;;;;6.23;3.60;;;14.30;90.20;;;;;;4182242;28;20176;-78
2022/07/30 02:13:56;;;;;;;4.00;3.23;;;14.20;90.70;;;;;;4181479;28;20631;-78
2022/07/30 02:16:02;;;;;;;5.30;3.33;;;14.20;90.90;;;;;;4181037;28;20180;-79
2022/07/30 02:18:12;;;;;;;4.33;3.50;;;14.10;90.90;;;;;;4177608;28;20187;-78
2022/07/30 02:20:15;;;;;;;4.40;3.53;;;14.00;91.40;;;;;;4182474;28;20559;-78
2022/07/30 02:22:18;;;;;;;4.00;3.23;;;14.00;91.60;;;;;;4181402;28;20191;-78
2022/07/30 02:24:26;;;;;;;4.97;3.37;;;13.80;91.90;;;;;;4178009;28;20204;-78
2022/07/30 02:26:29;;;;;;;5.17;4.53;;;13.70;92.30;;;;;;4163438;28;20191;-77
2022/07/30 02:28:33;;;;;;;3.47;3.17;;;13.50;93.30;;;;;;4165375;28;20172;-79
2022/07/30 02:30:36;;;;;;;4.67;3.80;;;13.50;93.90;;;;;;4165308;28;20183;-78
2022/07/30 02:32:41;;;;;;;3.77;3.47;;;13.50;94.00;;;;;;4166137;28;20561;-79
2022/07/30 02:34:44;;;;;;;6.73;3.30;;;13.50;93.80;;;;;;4163646;28;20243;-78
2022/07/30 02:36:46;;;;;;;5.57;5.03;;;13.50;93.90;;;;;;4165414;28;20193;-79
2022/07/30 02:38:49;;;;;;;5.57;3.80;;;13.50;93.80;;;;;;4165824;28;20255;-78
2022/07/30 02:40:51;;;;;;;4.50;4.03;;;13.60;93.70;;;;;;4165674;28;20185;-79
2022/07/30 02:42:53;;;;;;;4.10;3.27;;;13.60;93.70;;;;;;4165083;28;20235;-78
2022/07/30 02:44:55;;;;;;;4.00;3.60;;;13.50;93.80;;;;;;4164550;28;20208;-80
2022/07/30 02:46:57;;;;;;;3.33;3.03;;;13.50;94.00;;;;;;4164773;28;20181;-79
2022/07/30 02:48:58;;;;;;;5.27;4.20;;;13.50;94.00;;;;;;4164683;28;20193;-77
2022/07/30 02:51:01;;;;;;;4.57;3.70;;;13.40;94.40;;;;;;4165483;28;20185;-78
2022/07/30 02:53:06;;;;;;;3.87;3.43;;;13.30;94.50;;;;;;4164181;28;20192;-77
2022/07/30 02:55:08;;;;;;;5.90;3.83;;;13.30;94.80;;;;;;4163975;28;20279;-78
2022/07/30 02:57:10;;;;;;;6.23;4.30;;;13.20;95.20;;;;;;4163158;28;20246;-79
2022/07/30 02:59:11;;;;;;;4.50;4.07;;;13.20;95.30;;;;;;4163251;28;20254;-78
2022/07/30 03:01:15;;;;;;;4.30;3.83;;;13.10;95.90;;;;;;4165299;28;20195;-77
2022/07/30 03:03:16;;;;;;;9.53;4.00;;;13.00;96.50;;;;;;4164927;28;20663;-79
2022/07/30 03:05:17;;;;;;;4.10;3.67;;;12.90;96.60;;;;;;4165879;28;20675;-78
2022/07/30 03:07:19;;;;;;;5.33;3.73;;;12.90;96.50;;;;;;4168359;28;20189;-78
2022/07/30 03:09:20;;;;;;;6.90;4.63;;;12.90;96.70;;;;;;4166928;28;20575;-78
2022/07/30 03:11:22;;;;;;;4.37;3.97;;;13.00;97.00;;;;;;4167531;28;20549;-78
2022/07/30 03:13:23;;;;;;;5.57;3.83;;;12.90;97.10;;;;;;4168037;28;20541;-78
2022/07/30 03:15:25;;;;;;;6.93;4.43;;;12.90;97.50;;;;;;4167103;28;20189;-78
2022/07/30 03:17:30;;;;;;;4.90;4.40;;;12.80;97.60;;;;;;4174369;28;20191;-78
2022/07/30 03:19:35;;;;;;;5.77;4.43;;;12.70;98.10;;;;;;4184286;28;20183;-79
2022/07/30 03:21:38;;;;;;;5.23;4.40;;;12.80;98.00;;;;;;4184789;28;20168;-79
2022/07/30 03:23:39;;;;;;;5.90;5.40;;;12.80;97.90;;;;;;4184846;28;20686;-78
2022/07/30 03:25:41;;;;;;;4.67;4.20;;;12.70;98.00;;;;;;4197032;28;20207;-77
2022/07/30 03:27:42;;;;;;;6.07;4.93;;;12.70;98.40;;;;;;4189358;28;20191;-79
2022/07/30 03:29:44;;;;;;;7.87;4.40;;;12.60;99.10;;;;;;4185319;28;20172;-79
2022/07/30 03:31:45;;;;;;;6.63;4.90;;;12.60;99.40;;;;;;4184878;28;20184;-79
2022/07/30 03:33:47;;;;;;;5.27;4.40;;;12.60;99.90;;;;;;4184341;28;20204;-78
2022/07/30 03:35:48;;;;;;;8.80;4.80;;;12.60;99.90;;;;;;4185077;28;20250;-79
2022/07/30 03:37:50;;;;;;;7.40;6.70;;;12.60;99.90;;;;;;4183704;28;20191;-79
2022/07/30 03:39:52;;;;;;;4.57;4.17;;;12.60;99.70;;;;;;4184506;28;20180;-78
2022/07/30 03:41:54;;;;;;;7.60;4.27;;;12.50;99.90;;;;;;4183451;28;20208;-80
2022/07/30 03:43:55;;;;;;;5.53;5.00;;;12.50;99.90;;;;;;4182798;28;20220;-77
2022/07/30 03:45:57;;;;;;;6.73;4.70;;;12.50;99.90;;;;;;4184734;28;20200;-80
2022/07/30 03:47:58;;;;;;;5.47;4.60;;;12.60;99.90;;;;;;4184491;28;20183;-80
2022/07/30 03:50:00;;;;;;;6.53;5.40;;;12.60;99.90;;;;;;4184461;28;20188;-77
2022/07/30 03:52:03;;;;;;;5.90;5.20;;;12.50;99.90;;;;;;4184677;28;20184;-78
2022/07/30 03:54:08;;;;;;;6.73;5.97;;;12.60;99.90;;;;;;4183449;28;20734;-79
2022/07/30 03:56:09;;;;;;;7.83;4.90;;;12.60;99.90;;;;;;4184255;28;20163;-79
2022/07/30 03:58:10;;;;;;;6.97;5.00;;;12.60;99.90;;;;;;4184354;28;20194;-80
2022/07/30 04:00:14;;;;;;;6.17;5.60;;;12.60;99.90;;;;;;4183133;28;20209;-79
2022/07/30 04:02:15;;;;;;;6.53;5.43;;;12.70;99.90;;;;;;4184448;28;20212;-78
2022/07/30 04:04:16;;;;;;;6.83;5.23;;;12.70;99.90;;;;;;4183273;28;20223;-78
2022/07/30 04:06:16;;;;;;;6.93;5.30;;;12.80;99.90;;;;;;4183943;28;20196;-78
2022/07/30 04:08:17;;;;;;;7.00;5.37;;;12.80;99.90;;;;;;4183753;28;20185;-78
2022/07/30 04:10:17;;;;;;;6.00;4.90;;;12.80;99.90;;;;;;4183926;28;20191;-78
2022/07/30 04:12:18;;;;;;;5.70;5.17;;;12.80;99.90;;;;;;4182867;28;20275;-78
2022/07/30 04:14:18;;;;;;;7.23;4.60;;;12.80;99.90;;;;;;4183243;28;20204;-78
2022/07/30 04:16:29;;;;;;;7.90;6.27;;;12.70;99.90;;;;;;4182523;28;20177;-79
2022/07/30 04:18:36;;;;;;;7.97;5.60;;;12.70;99.90;;;;;;4182854;28;20174;-78
2022/07/30 04:20:41;;;;;;;6.97;5.23;;;12.70;99.90;;;;;;4183015;28;20635;-78
2022/07/30 04:22:42;;;;;;;6.67;5.63;;;12.80;99.90;;;;;;4177991;28;20306;-79
2022/07/30 04:24:43;;;;;;;8.03;5.57;;;12.80;99.90;;;;;;4179231;28;20236;-79
2022/07/30 04:26:45;;;;;;;7.47;5.33;;;12.90;99.90;;;;;;4183555;28;20176;-79
2022/07/30 04:28:46;;;;;;;8.47;5.97;;;13.00;99.90;;;;;;4182451;28;20226;-78
2022/07/30 04:30:46;;;;;;;6.63;5.43;;;13.00;99.90;;;;;;4183695;28;20223;-79
2022/07/30 04:32:47;;;;;;;7.00;4.90;;;13.10;99.90;;;;;;4182981;28;20188;-78
2022/07/30 04:34:49;;;;;;;5.47;4.97;;;13.10;99.70;;;;;;4180802;28;20218;-79
2022/07/30 04:36:50;;;;;;;7.47;5.20;;;13.00;99.80;;;;;;4183223;28;20192;-79
2022/07/30 04:38:50;;;;;;;7.50;5.07;;;13.00;99.90;;;;;;4183835;28;20242;-81
2022/07/30 04:40:51;;;;;;;7.00;5.57;;;13.00;99.90;;;;;;4183552;28;20722;-79
2022/07/30 04:42:51;;;;;;;6.07;4.43;;;13.10;99.90;;;;;;4184120;28;20211;-77
2022/07/30 04:44:52;;;;;;;6.07;5.47;;;13.10;99.90;;;;;;4181253;28;20266;-77
2022/07/30 04:46:53;;;;;;;8.67;5.43;;;13.10;99.90;;;;;;4180806;28;20177;-77
2022/07/30 04:48:53;;;;;;;6.90;5.50;;;13.10;99.90;;;;;;4181024;28;20184;-77
2022/07/30 04:50:58;;;;;;;7.73;5.57;;;13.10;99.90;;;;;;4179499;28;20281;-77
2022/07/30 04:52:59;;;;;;;7.33;5.20;;;13.20;99.50;;;;;;4180896;28;20218;-77
2022/07/30 04:55:05;;;;;;;7.27;5.77;;;13.20;99.30;;;;;;4180019;28;20235;-77
2022/07/30 04:57:07;;;;;;;6.17;5.00;;;13.20;99.20;;;;;;4180650;28;20219;-77
2022/07/30 04:59:09;;;;;;;7.43;5.00;;;13.30;99.10;;;;;;4180443;28;20196;-77
2022/07/30 05:01:14;;;;;;;7.40;5.13;;;13.40;98.70;;;;;;4180755;28;20949;-77
2022/07/30 05:03:16;;;;;;;7.73;4.90;;;13.40;98.50;;;;;;4180357;28;20203;-77
2022/07/30 05:05:18;;;;;;;6.97;5.63;;;13.40;98.50;;;;;;4180340;28;20192;-78
2022/07/30 05:07:20;;;;;;;6.40;5.43;;;13.40;98.20;;;;;;4180317;28;20241;-77
2022/07/30 05:09:21;;;;;;;5.53;4.80;;;13.40;98.30;;;;;;4181539;28;20181;-76
2022/07/30 05:11:22;;;;;;;6.87;5.13;;;13.40;98.40;;;;;;4183770;28;20203;-78
2022/07/30 05:13:22;;;;;;;5.60;5.00;;;13.50;98.20;;;;;;4182713;28;20322;-78
2022/07/30 05:15:23;;;;;;;6.30;4.63;;;13.50;98.10;;;;;;4181919;28;20208;-78
2022/07/30 05:17:24;;;;;;;5.90;5.40;;;13.60;97.90;;;;;;4183000;28;20215;-77
2022/07/30 05:19:24;;;;;;;6.30;4.70;;;13.70;97.30;;;;;;4183941;28;20221;-78
2022/07/30 05:21:25;;;;;;;5.30;4.70;;;13.70;97.30;;;;;;4183722;28;20184;-76
2022/07/30 05:23:26;;;;;;;5.70;4.70;;;13.80;97.20;;;;;;4183638;28;20216;-79
2022/07/30 05:25:26;;;;;;;4.97;4.47;;;13.80;97.00;;;;;;4193664;28;20181;-78
2022/07/30 05:27:27;;;;;;;4.70;4.23;;;13.80;96.90;;;;;;4188377;28;20195;-79
2022/07/30 05:29:27;;;;;;;5.20;4.13;;;13.90;96.80;;;;;;4181636;28;20192;-78
2022/07/30 05:31:28;;;;;;;6.03;4.40;;;13.80;97.00;;;;;;4184059;28;20258;-78
2022/07/30 05:33:29;;;;;;;6.07;4.53;;;13.90;96.90;;;;;;4180514;28;20192;-77
2022/07/30 05:35:29;;;;;;;7.67;5.23;;;13.90;97.00;;;;;;4181021;28;20255;-77
2022/07/30 05:37:31;;;;;;;5.40;4.83;;;14.00;96.60;;;;;;4180545;28;20647;-79
2022/07/30 05:39:32;;;;;;;5.47;4.60;;;14.20;95.50;;;;;;4181011;28;20184;-78
2022/07/30 05:41:32;;;;;;;5.60;4.80;;;14.30;95.20;;;;;;4179330;28;20709;-77
2022/07/30 05:43:33;;;;;;;6.33;4.40;;;14.40;94.60;;;;;;4180054;28;20212;-78
2022/07/30 05:45:33;;;;;;;6.27;4.63;;;14.50;94.10;;;;;;4180781;28;20177;-77
2022/07/30 05:47:34;;;;;;;5.40;4.90;;;14.60;94.10;;;;;;4181079;28;20224;-77
2022/07/30 05:49:35;;;;;;;5.97;3.70;;;14.60;93.90;;;;;;4180945;28;20247;-78
2022/07/30 05:51:35;;;;;;;7.97;7.33;;;15.00;92.10;;;;;;4180851;28;20187;-77
2022/07/30 05:53:36;;;;;;;7.63;4.63;;;15.30;91.10;;;;;;4179909;28;20544;-77
2022/07/30 05:55:36;;;;;;;4.63;4.23;;;15.40;90.80;;;;;;4179342;28;20259;-78
2022/07/30 05:57:37;;;;;;;4.93;4.07;;;15.50;90.60;;;;;;4180335;28;20191;-77
2022/07/30 05:59:38;;;;;;;5.97;5.33;;;15.60;90.30;;;;;;4180738;28;20184;-77
2022/07/30 06:01:38;;;;;;;6.70;4.53;;;15.60;90.20;;;;;;4178729;28;20193;-77
2022/07/30 06:03:39;;;;;;;4.93;4.43;;;15.70;89.20;;;;;;4179541;28;20223;-76
2022/07/30 06:05:40;;;;;;;4.37;3.93;;;15.80;88.60;;;;;;4180128;28;20172;-77
2022/07/30 06:07:40;;;;;;;32.17;29.37;;;15.90;86.60;;;;;;4180267;28;20264;-77
2022/07/30 06:09:41;;;;;;;6.90;5.30;;;16.00;86.00;;;;;;4179874;28;20234;-78
2022/07/30 06:11:41;;;;;;;4.13;3.70;;;16.20;85.10;;;;;;4180322;28;20212;-77
2022/07/30 06:13:43;;;;;;;14.03;12.87;;;16.40;84.20;;;;;;4179354;28;20190;-77
2022/07/30 06:15:43;;;;;;;5.83;4.33;;;16.50;83.60;;;;;;4180016;28;20647;-77
2022/07/30 06:17:45;;;;;;;38.40;34.50;;;16.60;83.80;;;;;;4178394;28;20270;-77
2022/07/30 06:19:47;;;;;;;4.67;3.43;;;16.70;83.00;;;;;;4179934;28;20226;-79
2022/07/30 06:21:48;;;;;;;11.77;10.87;;;16.70;82.30;;;;;;4178453;28;20199;-77
2022/07/30 06:23:48;;;;;;;7.73;7.10;;;16.80;81.30;;;;;;4165578;28;20217;-79
2022/07/30 06:25:49;;;;;;;13.43;12.10;;;16.90;80.60;;;;;;4163305;28;20173;-78
2022/07/30 06:27:50;;;;;;;7.83;3.93;;;17.00;79.50;;;;;;4163452;28;20177;-77
2022/07/30 06:29:50;;;;;;;5.87;5.37;;;17.10;78.30;;;;;;4163400;28;20687;-77
2022/07/30 06:31:51;;;;;;;7.13;3.97;;;17.20;75.00;;;;;;4163425;28;20176;-77
2022/07/30 06:33:51;;;;;;;5.93;3.33;;;17.20;72.70;;;;;;4162852;28;20212;-77
2022/07/30 06:35:52;;;;;;;4.97;4.13;;;17.30;72.60;;;;;;4163647;28;20246;-77
2022/07/30 06:37:53;;;;;;;7.10;6.50;;;17.30;72.60;;;;;;4163868;28;20189;-78
2022/07/30 06:39:53;;;;;;;7.53;5.60;;;17.10;74.30;;;;;;4165781;28;20180;-77
2022/07/30 06:41:54;;;;;;;4.57;4.03;;;17.30;73.60;;;;;;4167166;28;20548;-77
2022/07/30 06:43:54;;;;;;;6.93;3.67;;;17.30;72.50;;;;;;4166655;28;20308;-78
2022/07/30 06:45:55;;;;;;;36.13;32.73;;;17.40;71.80;;;;;;4167277;28;20177;-78
2022/07/30 06:47:57;;;;;;;11.27;10.40;;;17.40;71.90;;;;;;4166786;28;20192;-77
2022/07/30 06:50:00;;;;;;;5.10;4.57;;;17.60;71.90;;;;;;4166931;28;20176;-77
2022/07/30 06:52:01;;;;;;;15.93;12.27;;;17.60;71.20;;;;;;4166662;28;20192;-78
2022/07/30 06:54:01;;;;;;;9.60;4.97;;;17.80;70.20;;;;;;4166060;28;20196;-79
2022/07/30 06:56:02;;;;;;;12.83;11.80;;;17.90;69.50;;;;;;4167044;28;20231;-78
2022/07/30 06:58:03;;;;;;;14.70;13.43;;;18.20;68.30;;;;;;4166674;28;20663;-78
2022/07/30 07:00:05;;;;;;;8.10;7.33;;;18.30;68.20;;;;;;4166807;28;20192;-77
2022/07/30 07:02:06;;;;;;;10.20;9.40;;;18.30;67.60;;;;;;4166848;28;20240;-77
2022/07/30 07:04:07;;;;;;;4.77;4.00;;;18.40;67.70;;;;;;4165785;28;20213;-79
2022/07/30 07:06:08;;;;;;;5.83;4.10;;;18.50;66.70;;;;;;4166398;28;20208;-77
2022/07/30 07:08:08;;;;;;;5.23;4.37;;;18.40;65.40;;;;;;4166866;28;20587;-79
2022/07/30 07:10:09;;;;;;;4.17;3.73;;;18.40;65.50;;;;;;4166769;28;20183;-79
2022/07/30 07:12:10;;;;;;;7.23;4.00;;;18.50;64.90;;;;;;4166091;28;20165;-79
2022/07/30 07:14:10;;;;;;;13.07;11.93;;;18.80;64.10;;;;;;4177621;28;20587;-79
2022/07/30 07:16:11;;;;;;;18.50;16.70;;;18.80;64.40;;;;;;4182681;28;20291;-79
2022/07/30 07:18:12;;;;;;;7.33;6.73;;;18.80;62.40;;;;;;4182899;28;20553;-79
2022/07/30 07:20:12;;;;;;;10.17;9.33;;;18.90;62.30;;;;;;4182908;28;20542;-79
2022/07/30 07:22:13;;;;;;;10.67;8.03;;;18.90;61.00;;;;;;4183557;28;20283;-79
2022/07/30 07:24:13;;;;;;;11.60;10.53;;;19.10;60.20;;;;;;4184396;28;20234;-77
2022/07/30 07:26:15;;;;;;;6.33;5.93;;;19.20;59.60;;;;;;4194987;28;20188;-76
2022/07/30 07:28:15;;;;;;;7.73;6.80;;;19.20;58.40;;;;;;4186180;28;20598;-77
2022/07/30 07:30:16;;;;;;;34.90;32.33;;;19.30;58.00;;;;;;4184404;28;20180;-78
2022/07/30 07:32:16;;;;;;;8.83;8.03;;;19.30;58.80;;;;;;4184889;28;20646;-78
2022/07/30 07:34:17;;;;;;;4.17;3.07;;;19.40;56.90;;;;;;4194654;28;20200;-77
2022/07/30 07:36:17;;;;;;;7.73;7.00;;;19.40;56.70;;;;;;4197925;28;20188;-77
2022/07/30 07:38:18;;;;;;;7.30;6.80;;;19.60;53.60;;;;;;4198670;28;20203;-77
2022/07/30 07:40:19;;;;;;;4.10;3.83;;;19.70;51.40;;;;;;4192472;28;20188;-77
2022/07/30 07:42:19;;;;;;;11.73;10.87;;;19.90;51.10;;;;;;4183301;28;20181;-78
2022/07/30 07:44:20;;;;;;;6.13;5.23;;;20.00;51.90;;;;;;4182285;28;20212;-78
2022/07/30 07:46:20;;;;;;;6.53;3.00;;;20.00;52.00;;;;;;4182592;28;20181;-77
2022/07/30 07:48:21;;;;;;;12.63;11.73;;;20.10;53.90;;;;;;4180847;28;20255;-78
2022/07/30 07:50:22;;;;;;;9.37;8.73;;;20.30;49.90;;;;;;4173544;28;20231;-77
2022/07/30 07:52:22;;;;;;;5.10;4.60;;;20.30;49.10;;;;;;4167094;28;20210;-76
2022/07/30 07:54:23;;;;;;;4.57;4.27;;;20.40;51.10;;;;;;4167296;28;20208;-77
2022/07/30 07:56:24;;;;;;;25.10;23.57;;;20.40;48.30;;;;;;4170972;28;20177;-77
2022/07/30 07:58:25;;;;;;;11.03;10.23;;;20.50;48.50;;;;;;4165958;28;20549;-77
2022/07/30 08:00:26;;;;;;;24.10;22.10;;;20.60;47.00;;;;;;4165727;28;20184;-77
2022/07/30 08:02:27;;;;;;;3.30;2.97;;;20.70;46.20;;;;;;4164539;28;20211;-78
2022/07/30 08:04:28;;;;;;;28.43;26.47;;;20.50;47.20;;;;;;4164511;28;20229;-78
2022/07/30 08:06:28;;;;;;;3.90;2.67;;;20.70;47.10;;;;;;4165089;28;20797;-77
2022/07/30 08:08:32;;;;;;;9.70;8.73;;;20.80;46.70;;;;;;4164049;28;20612;-77
2022/07/30 08:10:32;;;;;;;6.47;2.77;;;21.10;45.70;;;;;;4166168;28;20185;-77
2022/07/30 08:12:34;;;;;;;3.40;2.60;;;20.90;46.10;;;;;;4164700;28;20230;-77
2022/07/30 08:14:34;;;;;;;2.83;2.60;;;21.20;45.00;;;;;;4164134;28;20610;-77
2022/07/30 08:16:40;;;;;;;5.10;3.93;;;21.40;45.60;;;;;;4164539;28;20169;-74
2022/07/30 08:18:43;;;;;;;5.93;5.50;;;21.40;45.70;;;;;;4163209;28;20173;-76
2022/07/30 08:20:44;;;;;;;3.50;3.10;;;21.50;44.90;;;;;;4164838;28;20177;-77
2022/07/30 08:22:44;;;;;;;3.70;2.23;;;21.20;45.40;;;;;;4165501;28;20201;-77
2022/07/30 08:24:45;;;;;;;12.90;11.63;;;21.30;45.30;;;;;;4179451;28;20207;-78
2022/07/30 08:26:45;;;;;;;8.27;7.53;;;21.20;44.70;;;;;;4180780;28;20230;-76
2022/07/30 08:28:46;;;;;;;2.80;2.20;;;20.90;45.60;;;;;;4180796;28;20638;-77
2022/07/30 08:30:48;;;;;;;3.67;3.37;;;21.00;44.70;;;;;;4181182;28;20653;-77
2022/07/30 08:32:49;;;;;;;3.70;2.20;;;20.90;44.40;;;;;;4179471;28;20271;-77
2022/07/30 08:34:49;;;;;;;4.10;2.60;;;20.90;43.90;;;;;;4180505;28;20669;-76
2022/07/30 08:36:50;;;;;;;7.50;7.03;;;20.80;44.70;;;;;;4180831;28;20260;-77
2022/07/30 08:38:50;;;;;;;60.27;56.07;;;21.10;44.30;;;;;;4180644;28;20192;-77
2022/07/30 08:40:54;;;;;;;3.47;2.50;;;21.20;44.80;;;;;;4179225;28;20184;-77
2022/07/30 08:42:54;;;;;;;5.40;4.90;;;21.10;44.20;;;;;;4180240;28;20207;-76
2022/07/30 08:44:55;;;;;;;14.27;13.17;;;21.00;44.40;;;;;;4180218;28;20197;-77
2022/07/30 08:46:57;;;;;;;10.93;10.23;;;21.30;44.70;;;;;;4180358;28;20168;-77
2022/07/30 08:48:58;;;;;;;8.37;7.77;;;21.50;43.60;;;;;;4180398;28;20639;-75
2022/07/30 08:50:59;;;;;;;10.00;9.20;;;21.40;44.00;;;;;;4180225;28;20169;-75
2022/07/30 08:53:01;;;;;;;7.63;7.03;;;21.40;43.00;;;;;;4180245;28;20207;-76
2022/07/30 08:55:04;;;;;;;6.20;5.63;;;21.30;44.00;;;;;;4179696;28;20572;-75
2022/07/30 08:57:05;;;;;;;4.43;4.00;;;21.50;43.10;;;;;;4180256;28;20233;-76
2022/07/30 08:59:05;;;;;;;9.43;8.70;;;21.50;44.00;;;;;;4180213;28;20188;-75
2022/07/30 09:01:06;;;;;;;4.07;3.77;;;21.60;43.50;;;;;;4180279;28;20181;-75
2022/07/30 09:03:07;;;;;;;5.30;2.97;;;21.70;43.70;;;;;;4179219;28;20192;-76
2022/07/30 09:05:10;;;;;;;5.80;5.27;;;21.90;42.50;;;;;;4179523;28;20809;-76
2022/07/30 09:07:10;;;;;;;3.20;2.80;;;22.20;42.90;;;;;;4180078;28;20176;-74
2022/07/30 09:09:11;;;;;;;5.67;5.27;;;22.40;41.60;;;;;;4180236;28;20274;-72
2022/07/30 09:11:11;;;;;;;6.47;5.93;;;22.40;42.20;;;;;;4179974;28;20193;-74
2022/07/30 09:13:29;;;;;;;9.80;8.17;;;22.30;41.50;;;;;;4179895;28;20242;-75
2022/07/30 09:15:32;;;;;;;3.60;3.30;;;21.90;41.70;;;;;;4179567;28;20187;-74
2022/07/30 09:17:51;;;;;;;2.70;2.47;;;21.90;41.50;;;;;;4179748;28;20561;-74
2022/07/30 09:20:03;;;;;;;10.03;9.20;;;22.40;41.70;;;;;;4179767;28;20245;-75
2022/07/30 09:22:05;;;;;;;2.90;2.60;;;22.70;39.90;;;;;;4179482;28;20191;-74
2022/07/30 09:24:10;;;;;;;6.77;6.23;;;23.20;40.80;;;;;;4179174;28;20215;-75
2022/07/30 09:26:11;;;;;;;3.17;2.27;;;23.60;38.40;;;;;;4179636;28;20207;-75
2022/07/30 09:28:12;;;;;;;9.43;8.73;;;23.30;38.40;;;;;;4179728;28;20181;-74
2022/07/30 09:30:13;;;;;;;6.03;5.53;;;23.10;39.40;;;;;;4179578;28;20180;-74
2022/07/30 09:32:14;;;;;;;49.47;44.53;;;23.20;39.10;;;;;;4179507;28;20581;-74
2022/07/30 09:34:25;;;;;;;3.00;1.73;;;22.60;39.10;;;;;;4179153;28;20208;-74
2022/07/30 09:36:30;;;;;;;3.47;1.70;;;22.40;39.20;;;;;;4179619;28;20172;-73
2022/07/30 09:38:50;;;;;;;5.23;2.87;;;22.50;38.40;;;;;;4179524;28;20169;-73
2022/07/30 09:40:52;;;;;;;5.03;4.67;;;22.90;37.00;;;;;;4179985;28;20172;-74
2022/07/30 09:43:10;;;;;;;4.27;3.87;;;22.80;38.80;;;;;;4182161;28;20211;-74
2022/07/30 09:45:14;;;;;;;25.00;23.40;;;23.10;39.80;;;;;;4179377;28;20250;-73
2022/07/30 09:47:35;;;;;;;17.17;15.97;;;23.20;39.70;;;;;;4180007;28;20184;-72
2022/07/30 09:49:36;;;;;;;50.70;47.37;;;23.10;40.40;;;;;;4179622;28;20623;-73
2022/07/30 09:51:38;;;;;;;8.27;7.70;;;23.30;38.90;;;;;;4179908;28;20237;-73
2022/07/30 09:53:57;;;;;;;22.47;21.17;;;23.20;38.00;;;;;;4179268;28;20195;-73
2022/07/30 09:55:59;;;;;;;4.70;4.47;;;23.30;38.60;;;;;;4180102;28;20234;-72
2022/07/30 09:58:02;;;;;;;6.10;5.37;;;23.40;38.50;;;;;;4179964;28;20528;-72
2022/07/30 10:00:19;;;;;;;52.70;49.23;;;23.70;38.10;;;;;;4179839;28;20173;-73
2022/07/30 10:02:27;;;;;;;4.37;2.93;;;23.90;38.40;;;;;;4179594;28;20176;-73
2022/07/30 10:04:30;;;;;;;6.87;6.27;;;24.10;37.70;;;;;;4179022;28;20219;-72
2022/07/30 10:06:35;;;;;;;9.70;8.97;;;24.00;37.90;;;;;;4179703;28;20272;-72
2022/07/30 10:08:50;;;;;;;7.20;6.70;;;23.40;38.40;;;;;;4179747;28;20750;-71
2022/07/30 10:10:51;;;;;;;2.40;2.30;;;23.50;36.70;;;;;;4179532;28;20184;-72
2022/07/30 10:12:56;;;;;;;4.83;4.37;;;23.80;34.80;;;;;;4179690;28;20169;-72
2022/07/30 10:15:00;;;;;;;4.13;2.50;;;23.80;35.90;;;;;;4178665;28;20211;-72
2022/07/30 10:17:02;;;;;;;6.03;5.40;;;23.80;36.10;;;;;;4179480;28;20191;-71
2022/07/30 10:19:02;;;;;;;5.90;4.80;;;23.30;37.10;;;;;;4179668;28;20601;-72
2022/07/30 10:21:03;;;;;;;8.30;7.63;;;23.60;37.10;;;;;;4179209;28;20190;-72
2022/07/30 10:23:06;;;;;;;20.70;19.20;;;23.60;38.00;;;;;;4179459;28;20215;-71
2022/07/30 10:25:08;;;;;;;23.70;22.23;;;23.60;37.40;;;;;;4177734;28;20240;-71
2022/07/30 10:27:09;;;;;;;64.80;59.60;;;24.00;37.50;;;;;;4179491;28;20267;-73
2022/07/30 10:29:10;;;;;;;14.50;13.60;;;23.90;37.20;;;;;;4179215;28;20180;-71
2022/07/30 10:31:11;;;;;;;3.30;3.10;;;24.20;36.60;;;;;;4179665;28;20570;-71
2022/07/30 10:33:11;;;;;;;4.13;3.83;;;24.50;36.60;;;;;;4167883;28;20195;-71
2022/07/30 10:35:13;;;;;;;2.27;2.07;;;25.00;35.30;;;;;;4162539;28;20304;-75
2022/07/30 10:37:15;;;;;;;5.40;2.83;;;25.10;34.40;;;;;;4164294;28;20553;-79
2022/07/30 10:39:26;;;;;;;3.30;3.00;;;25.00;34.40;;;;;;4164030;28;20189;-78